Time;durP1;ratioP1;P1;durP2;ratioP2;P2;SDS_P1;SDS_P2;PMS_P1;PMS_P2;Temp;Humidity;BMP_temperature;BMP_pressure;BME280_temperature;BME280_humidity;BME280_pressure;Samples;Min_cycle;Max_cycle;Signal;HPM_P1;HPM_P2
2021/08/08 00:02:16;;;;;;;;;;;;;;;;;;5029934;28;19925;-69
2021/08/08 00:04:43;;;;;;;;;;;;;;;;;;5031981;28;19925;-69
2021/08/08 00:07:10;;;;;;;;;;;;;;;;;;5032500;28;19925;-68
2021/08/08 00:09:37;;;;;;;;;;;;;;;;;;5035470;28;19939;-69
2021/08/08 00:12:03;;;;;;;;;;;;;;;;;;5031959;28;20032;-70
2021/08/08 00:14:30;;;;;;;;;;;;;;;;;;5031193;28;20016;-69
2021/08/08 00:16:57;;;;;;;;;;;;;;;;;;5031027;28;20028;-69
2021/08/08 00:19:24;;;;;;;;;;;;;;;;;;5033511;28;19925;-69
2021/08/08 00:21:51;;;;;;;;;;;;;;;;;;5031361;28;19925;-69
2021/08/08 00:24:18;;;;;;;;;;;;;;;;;;5027874;28;19964;-69
2021/08/08 00:26:45;;;;;;;;;;;;;;;;;;5029461;28;19925;-68
2021/08/08 00:29:12;;;;;;;;;;;;;;;;;;5029933;28;19929;-69
2021/08/08 00:31:39;;;;;;;;;;;;;;;;;;5030965;28;19925;-68
2021/08/08 00:34:06;;;;;;;;;;;;;;;;;;5032974;28;20027;-69
2021/08/08 00:36:35;;;;;;;;;;;;;;;;;;5031093;28;19925;-69
2021/08/08 00:39:02;;;;;;;;;;;;;;;;;;5028004;28;19972;-68
2021/08/08 00:41:29;;;;;;;;;;;;;;;;;;5031713;28;19933;-69
2021/08/08 00:43:56;;;;;;;;;;;;;;;;;;5029909;28;19933;-69
2021/08/08 00:46:23;;;;;;;;;;;;;;;;;;5030941;28;19932;-69
2021/08/08 00:48:50;;;;;;;;;;;;;;;;;;5031402;28;19932;-69
2021/08/08 00:51:17;;;;;;;;;;;;;;;;;;5028617;28;19926;-69
2021/08/08 00:53:43;;;;;;;;;;;;;;;;;;5030536;28;20290;-68
2021/08/08 00:56:11;;;;;;;;;;;;;;;;;;5030186;28;19929;-69
2021/08/08 00:58:38;;;;;;;;;;;;;;;;;;5030915;28;20306;-69
2021/08/08 01:01:05;;;;;;;;;;;;;;;;;;5030195;28;19925;-69
2021/08/08 01:03:32;;;;;;;;;;;;;;;;;;5029668;28;19932;-69
2021/08/08 01:05:59;;;;;;;;;;;;;;;;;;5029565;28;19926;-69
2021/08/08 01:08:26;;;;;;;;;;;;;;;;;;5031028;28;19931;-68
2021/08/08 01:10:53;;;;;;;;;;;;;;;;;;5030642;28;20003;-70
2021/08/08 01:13:20;;;;;;;;;;;;;;;;;;5031236;28;19925;-68
2021/08/08 01:15:47;;;;;;;;;;;;;;;;;;5030631;28;19936;-68
2021/08/08 01:18:14;;;;;;;;;;;;;;;;;;5029865;28;19943;-69
2021/08/08 01:20:41;;;;;;;;;;;;;;;;;;5029193;28;19929;-68
2021/08/08 01:23:08;;;;;;;;;;;;;;;;;;5030585;28;19929;-68
2021/08/08 01:25:35;;;;;;;;;;;;;;;;;;5029489;28;19925;-69
2021/08/08 01:28:02;;;;;;;;;;;;;;;;;;5029906;28;19948;-68
2021/08/08 01:30:29;;;;;;;;;;;;;;;;;;5030468;28;19979;-69
2021/08/08 01:32:56;;;;;;;;;;;;;;;;;;5033136;28;19925;-69
2021/08/08 01:35:23;;;;;;;;;;;;;;;;;;5030459;28;20539;-68
2021/08/08 01:37:50;;;;;;;;;;;;;;;;;;5030983;28;20008;-68
2021/08/08 01:40:17;;;;;;;;;;;;;;;;;;5029910;28;19947;-68
2021/08/08 01:42:44;;;;;;;;;;;;;;;;;;5030345;28;19932;-68
2021/08/08 01:45:11;;;;;;;;;;;;;;;;;;5028019;28;20300;-68
2021/08/08 01:47:38;;;;;;;;;;;;;;;;;;5025957;28;19991;-69
2021/08/08 01:50:05;;;;;;;;;;;;;;;;;;5030791;28;19933;-69
2021/08/08 01:52:32;;;;;;;;;;;;;;;;;;5028735;28;19925;-69
2021/08/08 01:54:59;;;;;;;;;;;;;;;;;;5025900;28;19925;-69
2021/08/08 01:57:26;;;;;;;;;;;;;;;;;;5027689;28;20001;-69
2021/08/08 01:59:53;;;;;;;;;;;;;;;;;;5032772;28;19933;-68
2021/08/08 02:02:20;;;;;;;;;;;;;;;;;;5027592;28;20292;-69
2021/08/08 02:04:46;;;;;;;;;;;;;;;;;;5029219;28;20858;-69
2021/08/08 02:07:13;;;;;;;;;;;;;;;;;;5028797;28;20290;-69
2021/08/08 02:09:40;;;;;;;;;;;;;;;;;;5026336;28;20411;-69
2021/08/08 02:12:07;;;;;;;;;;;;;;;;;;5029939;28;20397;-69
2021/08/08 02:14:34;;;;;;;;;;;;;;;;;;5030150;28;20305;-69
2021/08/08 02:17:01;;;;;;;;;;;;;;;;;;5030665;28;20012;-69
2021/08/08 02:19:29;;;;;;;;;;;;;;;;;;5024002;28;19933;-70
2021/08/08 02:21:56;;;;;;;;;;;;;;;;;;5026281;28;19948;-69
2021/08/08 02:24:23;;;;;;;;;;;;;;;;;;5027401;28;19925;-69
2021/08/08 02:26:50;;;;;;;;;;;;;;;;;;5029962;28;20315;-69
2021/08/08 02:29:17;;;;;;;;;;;;;;;;;;5033589;28;19925;-70
2021/08/08 02:31:44;;;;;;;;;;;;;;;;;;5028472;28;19925;-70
2021/08/08 02:34:12;;;;;;;;;;;;;;;;;;5025196;28;19935;-69
2021/08/08 02:36:39;;;;;;;;;;;;;;;;;;5030171;28;19925;-68
2021/08/08 02:39:06;;;;;;;;;;;;;;;;;;5027219;28;19969;-69
2021/08/08 02:41:33;;;;;;;;;;;;;;;;;;5029730;28;19929;-69
2021/08/08 02:44:00;;;;;;;;;;;;;;;;;;5027168;28;19933;-69
2021/08/08 02:46:27;;;;;;;;;;;;;;;;;;5031848;28;19931;-68
2021/08/08 02:48:54;;;;;;;;;;;;;;;;;;5023761;28;19925;-69
2021/08/08 02:51:21;;;;;;;;;;;;;;;;;;5028930;28;20001;-68
2021/08/08 02:53:48;;;;;;;;;;;;;;;;;;5028664;28;19937;-69
2021/08/08 02:56:15;;;;;;;;;;;;;;;;;;5029382;28;19931;-69
2021/08/08 02:58:42;;;;;;;;;;;;;;;;;;5028433;28;19937;-68
2021/08/08 03:01:11;;;;;;;;;;;;;;;;;;5027943;28;20297;-68
2021/08/08 03:03:38;;;;;;;;;;;;;;;;;;5028866;28;20457;-69
2021/08/08 03:06:05;;;;;;;;;;;;;;;;;;5030228;28;20305;-69
2021/08/08 03:08:32;;;;;;;;;;;;;;;;;;5029255;28;19925;-69
2021/08/08 03:10:59;;;;;;;;;;;;;;;;;;5029135;28;19933;-68
2021/08/08 03:13:26;;;;;;;;;;;;;;;;;;5026988;28;20381;-68
2021/08/08 03:15:53;;;;;;;;;;;;;;;;;;5026470;28;19975;-68
2021/08/08 03:18:20;;;;;;;;;;;;;;;;;;5028950;28;20393;-68
2021/08/08 03:20:47;;;;;;;;;;;;;;;;;;5030575;28;19947;-68
2021/08/08 03:23:14;;;;;;;;;;;;;;;;;;5028767;28;19932;-68
2021/08/08 03:25:41;;;;;;;;;;;;;;;;;;5027770;28;19951;-68
2021/08/08 03:28:08;;;;;;;;;;;;;;;;;;5027516;28;20112;-68
2021/08/08 03:30:35;;;;;;;;;;;;;;;;;;5027498;28;19964;-68
2021/08/08 03:33:03;;;;;;;;;;;;;;;;;;5032930;28;20024;-69
2021/08/08 03:35:29;;;;;;;;;;;;;;;;;;5038030;28;19932;-68
2021/08/08 03:37:56;;;;;;;;;;;;;;;;;;5031416;28;19931;-69
2021/08/08 03:40:23;;;;;;;;;;;;;;;;;;5043538;22;19924;-71
2021/08/08 03:42:50;;;;;;;;;;;;;;;;;;5033797;28;19952;-71
2021/08/08 03:45:17;;;;;;;;;;;;;;;;;;5035840;28;20296;-71
2021/08/08 03:47:44;;;;;;;;;;;;;;;;;;5040220;28;19932;-70
2021/08/08 03:50:11;;;;;;;;;;;;;;;;;;5031147;28;20356;-70
2021/08/08 03:52:38;;;;;;;;;;;;;;;;;;5036027;28;19925;-71
2021/08/08 03:55:05;;;;;;;;;;;;;;;;;;5037614;28;19929;-70
2021/08/08 03:57:32;;;;;;;;;;;;;;;;;;5033373;28;19925;-70
2021/08/08 03:59:59;;;;;;;;;;;;;;;;;;5033633;28;20399;-70
2021/08/08 04:02:26;;;;;;;;;;;;;;;;;;5034223;28;19925;-71
2021/08/08 04:04:53;;;;;;;;;;;;;;;;;;5029747;28;19929;-71
2021/08/08 04:07:20;;;;;;;;;;;;;;;;;;5030553;28;19925;-70
2021/08/08 04:09:47;;;;;;;;;;;;;;;;;;5032563;28;19932;-70
2021/08/08 04:12:14;;;;;;;;;;;;;;;;;;5032366;28;20040;-70
2021/08/08 04:14:42;;;;;;;;;;;;;;;;;;5029320;28;20043;-71
2021/08/08 04:17:09;;;;;;;;;;;;;;;;;;5026496;28;20118;-71
2021/08/08 04:19:36;;;;;;;;;;;;;;;;;;5034965;28;20288;-70
2021/08/08 04:22:03;;;;;;;;;;;;;;;;;;5035682;28;20351;-70
2021/08/08 04:24:30;;;;;;;;;;;;;;;;;;5033519;28;19925;-71
2021/08/08 04:26:57;;;;;;;;;;;;;;;;;;5033072;28;19925;-70
2021/08/08 04:29:24;;;;;;;;;;;;;;;;;;5028116;28;20316;-70
2021/08/08 04:31:51;;;;;;;;;;;;;;;;;;5031370;28;19939;-71
2021/08/08 04:34:18;;;;;;;;;;;;;;;;;;5030513;28;19925;-70
2021/08/08 04:36:45;;;;;;;;;;;;;;;;;;5031250;28;19929;-70
2021/08/08 04:39:11;;;;;;;;;;;;;;;;;;5033726;28;19924;-70
2021/08/08 04:41:38;;;;;;;;;;;;;;;;;;5032654;28;20297;-70
2021/08/08 04:44:05;;;;;;;;;;;;;;;;;;5028761;28;19925;-70
2021/08/08 04:46:32;;;;;;;;;;;;;;;;;;5032585;28;19929;-70
2021/08/08 04:48:59;;;;;;;;;;;;;;;;;;5034550;28;19925;-70
2021/08/08 04:51:26;;;;;;;;;;;;;;;;;;5033264;28;19925;-70
2021/08/08 04:53:53;;;;;;;;;;;;;;;;;;5035758;28;19929;-70
2021/08/08 04:56:20;;;;;;;;;;;;;;;;;;5034852;28;20377;-71
2021/08/08 04:58:47;;;;;;;;;;;;;;;;;;5039620;28;19932;-71
2021/08/08 05:01:14;;;;;;;;;;;;;;;;;;5047119;28;19925;-71
2021/08/08 05:03:41;;;;;;;;;;;;;;;;;;5038948;28;20320;-71
2021/08/08 05:06:07;;;;;;;;;;;;;;;;;;5040441;28;19935;-71
2021/08/08 05:08:34;;;;;;;;;;;;;;;;;;5031570;28;19925;-71
2021/08/08 05:11:01;;;;;;;;;;;;;;;;;;5031494;28;20356;-70
2021/08/08 05:13:29;;;;;;;;;;;;;;;;;;5032280;28;20367;-70
2021/08/08 05:15:56;;;;;;;;;;;;;;;;;;5034401;28;19933;-70
2021/08/08 05:18:23;;;;;;;;;;;;;;;;;;5032192;28;19976;-69
2021/08/08 05:20:50;;;;;;;;;;;;;;;;;;5027770;28;19936;-70
2021/08/08 05:23:16;;;;;;;;;;;;;;;;;;5031318;28;19925;-70
2021/08/08 05:25:43;;;;;;;;;;;;;;;;;;5031421;28;20320;-69
2021/08/08 05:28:10;;;;;;;;;;;;;;;;;;5029734;28;19932;-70
2021/08/08 05:30:37;;;;;;;;;;;;;;;;;;5030184;28;19929;-69
2021/08/08 05:33:04;;;;;;;;;;;;;;;;;;5026958;28;20297;-70
2021/08/08 05:35:31;;;;;;;;;;;;;;;;;;5031426;28;19925;-70
2021/08/08 05:37:58;;;;;;;;;;;;;;;;;;5031990;28;19925;-70
2021/08/08 05:40:25;;;;;;;;;;;;;;;;;;5031611;28;19925;-70
2021/08/08 05:42:52;;;;;;;;;;;;;;;;;;5030027;28;19925;-71
2021/08/08 05:45:19;;;;;;;;;;;;;;;;;;5032172;28;20288;-70
2021/08/08 05:47:46;;;;;;;;;;;;;;;;;;5030168;28;19925;-70
2021/08/08 05:50:13;;;;;;;;;;;;;;;;;;5032062;28;19940;-70
2021/08/08 05:52:40;;;;;;;;;;;;;;;;;;5028481;28;19979;-69
2021/08/08 05:55:07;;;;;;;;;;;;;;;;;;5028640;28;20309;-70
2021/08/08 05:57:34;;;;;;;;;;;;;;;;;;5035209;28;19929;-69
2021/08/08 06:00:00;;;;;;;;;;;;;;;;;;5028762;28;20911;-70
2021/08/08 06:02:27;;;;;;;;;;;;;;;;;;5030668;28;20304;-70
2021/08/08 06:04:54;;;;;;;;;;;;;;;;;;5030251;28;19944;-70
2021/08/08 06:07:21;;;;;;;;;;;;;;;;;;5031518;28;19947;-69
2021/08/08 06:09:48;;;;;;;;;;;;;;;;;;5031306;28;19932;-70
2021/08/08 06:12:15;;;;;;;;;;;;;;;;;;5028130;28;20115;-70
2021/08/08 06:14:42;;;;;;;;;;;;;;;;;;5034345;28;19925;-70
2021/08/08 06:17:09;;;;;;;;;;;;;;;;;;5030480;28;19940;-70
2021/08/08 06:19:36;;;;;;;;;;;;;;;;;;5030843;28;19925;-70
2021/08/08 06:22:03;;;;;;;;;;;;;;;;;;5028459;28;20297;-70
2021/08/08 06:24:30;;;;;;;;;;;;;;;;;;5027901;28;20512;-71
2021/08/08 06:26:57;;;;;;;;;;;;;;;;;;5030510;28;19932;-71
2021/08/08 06:29:24;;;;;;;;;;;;;;;;;;5028991;28;21195;-70
2021/08/08 06:31:51;;;;;;;;;;;;;;;;;;5035791;28;19932;-69
2021/08/08 06:34:18;;;;;;;;;;;;;;;;;;5028136;28;19925;-70
2021/08/08 06:36:45;;;;;;;;;;;;;;;;;;5029871;28;19951;-69
2021/08/08 06:39:12;;;;;;;;;;;;;;;;;;5033582;28;19933;-70
2021/08/08 06:41:39;;;;;;;;;;;;;;;;;;5032510;28;20278;-70
2021/08/08 06:44:06;;;;;;;;;;;;;;;;;;5034522;28;20297;-69
2021/08/08 06:46:33;;;;;;;;;;;;;;;;;;5029349;28;19925;-70
2021/08/08 06:48:59;;;;;;;;;;;;;;;;;;5028899;28;19925;-70
2021/08/08 06:51:26;;;;;;;;;;;;;;;;;;5029564;28;19926;-70
2021/08/08 06:53:53;;;;;;;;;;;;;;;;;;5029243;28;19940;-70
2021/08/08 06:56:20;;;;;;;;;;;;;;;;;;5030985;28;19955;-70
2021/08/08 06:58:47;;;;;;;;;;;;;;;;;;5030426;28;20392;-71
2021/08/08 07:01:14;;;;;;;;;;;;;;;;;;5031085;28;19925;-71
2021/08/08 07:03:41;;;;;;;;;;;;;;;;;;5026734;28;19925;-71
2021/08/08 07:06:08;;;;;;;;;;;;;;;;;;5029993;28;19940;-70
2021/08/08 07:08:35;;;;;;;;;;;;;;;;;;5030581;28;19925;-70
2021/08/08 07:11:02;;;;;;;;;;;;;;;;;;5035912;28;19932;-69
2021/08/08 07:13:29;;;;;;;;;;;;;;;;;;5032338;28;19940;-70
2021/08/08 07:15:56;;;;;;;;;;;;;;;;;;5033948;28;19925;-70
2021/08/08 07:18:23;;;;;;;;;;;;;;;;;;5034077;28;19925;-69
2021/08/08 07:20:50;;;;;;;;;;;;;;;;;;5032690;28;19932;-70
2021/08/08 07:23:17;;;;;;;;;;;;;;;;;;5031908;28;20304;-70
2021/08/08 07:25:44;;;;;;;;;;;;;;;;;;5031638;28;19933;-70
2021/08/08 07:28:11;;;;;;;;;;;;;;;;;;5033099;28;19983;-69
2021/08/08 07:30:38;;;;;;;;;;;;;;;;;;5032795;28;19925;-70
2021/08/08 07:33:05;;;;;;;;;;;;;;;;;;5031428;28;20305;-69
2021/08/08 07:35:32;;;;;;;;;;;;;;;;;;5032844;28;19933;-71
2021/08/08 07:37:59;;;;;;;;;;;;;;;;;;5034191;28;19925;-70
2021/08/08 07:40:25;;;;;;;;;;;;;;;;;;5030315;28;20364;-71
2021/08/08 07:42:52;;;;;;;;;;;;;;;;;;5033277;28;19936;-69
2021/08/08 07:45:19;;;;;;;;;;;;;;;;;;5034574;28;19932;-71
2021/08/08 07:47:46;;;;;;;;;;;;;;;;;;5033344;28;20333;-69
2021/08/08 07:50:13;;;;;;;;;;;;;;;;;;5031777;28;19932;-69
2021/08/08 07:52:40;;;;;;;;;;;;;;;;;;5030452;28;19971;-69
2021/08/08 07:55:07;;;;;;;;;;;;;;;;;;5033444;28;19932;-69
2021/08/08 07:57:34;;;;;;;;;;;;;;;;;;5032723;28;19935;-68
2021/08/08 08:00:01;;;;;;;;;;;;;;;;;;5031683;28;20038;-69
2021/08/08 08:02:28;;;;;;;;;;;;;;;;;;5031583;28;19931;-69
2021/08/08 08:04:55;;;;;;;;;;;;;;;;;;5033890;28;19929;-69
2021/08/08 08:07:22;;;;;;;;;;;;;;;;;;5032150;28;19941;-69
2021/08/08 08:09:49;;;;;;;;;;;;;;;;;;5032859;28;20617;-68
2021/08/08 08:12:15;;;;;;;;;;;;;;;;;;5026578;28;19925;-70
2021/08/08 08:14:42;;;;;;;;;;;;;;;;;;5032383;28;19929;-69
2021/08/08 08:17:09;;;;;;;;;;;;;;;;;;5030050;28;19925;-69
2021/08/08 08:19:36;;;;;;;;;;;;;;;;;;5028365;28;19925;-69
2021/08/08 08:22:03;;;;;;;;;;;;;;;;;;5027469;28;19936;-69
2021/08/08 08:24:30;;;;;;;;;;;;;;;;;;5024143;28;19970;-70
2021/08/08 08:26:57;;;;;;;;;;;;;;;;;;5028741;28;20408;-70
2021/08/08 08:29:24;;;;;;;;;;;;;;;;;;5029510;28;19929;-70
2021/08/08 08:31:51;;;;;;;;;;;;;;;;;;5029031;28;20357;-70
2021/08/08 08:34:18;;;;;;;;;;;;;;;;;;5028421;28;20329;-69
2021/08/08 08:36:45;;;;;;;;;;;;;;;;;;5028923;28;19926;-69
2021/08/08 08:39:12;;;;;;;;;;;;;;;;;;5029550;28;19979;-69
2021/08/08 08:41:39;;;;;;;;;;;;;;;;;;5028196;28;20689;-69
2021/08/08 08:44:06;;;;;;;;;;;;;;;;;;5032944;28;19940;-69
2021/08/08 08:46:34;;;;;;;;;;;;;;;;;;5030651;28;20286;-68
2021/08/08 08:49:01;;;;;;;;;;;;;;;;;;5029929;28;19925;-68
2021/08/08 08:51:28;;;;;;;;;;;;;;;;;;5030466;28;19925;-70
2021/08/08 08:53:55;;;;;;;;;;;;;;;;;;5027758;28;19925;-69
2021/08/08 08:56:22;;;;;;;;;;;;;;;;;;5028986;28;19925;-68
2021/08/08 08:58:49;;;;;;;;;;;;;;;;;;5030985;28;19932;-69
2021/08/08 09:01:16;;;;;;;;;;;;;;;;;;5029695;28;19943;-69
2021/08/08 09:03:43;;;;;;;;;;;;;;;;;;5030121;28;19925;-69
2021/08/08 09:06:10;;;;;;;;;;;;;;;;;;5029290;28;19925;-68
2021/08/08 09:08:36;;;;;;;;;;;;;;;;;;5026750;28;19929;-69
2021/08/08 09:11:03;;;;;;;;;;;;;;;;;;5029915;28;20393;-68
2021/08/08 09:13:30;;;;;;;;;;;;;;;;;;5028974;28;19925;-70
2021/08/08 09:15:57;;;;;;;;;;;;;;;;;;5030872;28;19925;-69
2021/08/08 09:18:24;;;;;;;;;;;;;;;;;;5031743;28;20328;-68
2021/08/08 09:20:51;;;;;;;;;;;;;;;;;;5030608;28;20343;-67
2021/08/08 09:23:18;;;;;;;;;;;;;;;;;;5030938;28;20367;-68
2021/08/08 09:25:45;;;;;;;;;;;;;;;;;;5033312;28;20341;-69
2021/08/08 09:28:12;;;;;;;;;;;;;;;;;;5028313;28;19932;-68
2021/08/08 09:30:39;;;;;;;;;;;;;;;;;;5027034;28;20019;-68
2021/08/08 09:33:06;;;;;;;;;;;;;;;;;;5022047;28;19931;-68
2021/08/08 09:35:33;;;;;;;;;;;;;;;;;;5029458;28;19948;-68
2021/08/08 09:38:00;;;;;;;;;;;;;;;;;;5028354;28;19925;-66
2021/08/08 09:40:27;;;;;;;;;;;;;;;;;;5044626;22;19924;-67
2021/08/08 09:42:54;;;;;;;;;;;;;;;;;;5048150;28;19940;-70
2021/08/08 09:45:21;;;;;;;;;;;;;;;;;;5047101;28;19929;-69
2021/08/08 09:47:48;;;;;;;;;;;;;;;;;;5040990;28;20373;-72
2021/08/08 09:50:15;;;;;;;;;;;;;;;;;;5041635;28;19932;-71
2021/08/08 09:52:41;;;;;;;;;;;;;;;;;;5044331;28;19933;-71
2021/08/08 09:55:08;;;;;;;;;;;;;;;;;;5041094;28;20270;-70
2021/08/08 09:57:35;;;;;;;;;;;;;;;;;;5040502;28;19940;-71
2021/08/08 10:00:02;;;;;;;;;;;;;;;;;;5040475;28;19929;-69
2021/08/08 10:02:29;;;;;;;;;;;;;;;;;;5042043;28;19925;-70
2021/08/08 10:04:56;;;;;;;;;;;;;;;;;;5039276;28;20434;-69
2021/08/08 10:07:23;;;;;;;;;;;;;;;;;;5042801;28;20295;-68
2021/08/08 10:09:50;;;;;;;;;;;;;;;;;;5040902;28;19932;-71
2021/08/08 10:12:17;;;;;;;;;;;;;;;;;;5045203;28;19931;-70
2021/08/08 10:14:45;;;;;;;;;;;;;;;;;;5044135;28;19939;-69
2021/08/08 10:17:12;;;;;;;;;;;;;;;;;;5039387;28;20490;-68
2021/08/08 10:19:39;;;;;;;;;;;;;;;;;;5043098;28;19925;-69
2021/08/08 10:22:07;;;;;;;;;;;;;;;;;;5041318;28;19928;-69
2021/08/08 10:24:34;;;;;;;;;;;;;;;;;;5044240;28;19933;-69
2021/08/08 10:27:01;;;;;;;;;;;;;;;;;;5043461;28;19925;-69
2021/08/08 10:29:28;;;;;;;;;;;;;;;;;;5043275;28;19933;-70
2021/08/08 10:31:55;;;;;;;;;;;;;;;;;;5044054;28;19925;-68
2021/08/08 10:34:22;;;;;;;;;;;;;;;;;;5043844;28;20021;-69
2021/08/08 10:36:49;;;;;;;;;;;;;;;;;;5043595;28;19932;-69
2021/08/08 10:39:16;;;;;;;;;;;;;;;;;;5042711;28;19951;-69
2021/08/08 10:41:43;;;;;;;;;;;;;;;;;;5040405;28;19925;-69
2021/08/08 10:44:10;;;;;;;;;;;;;;;;;;5042549;28;19939;-69
2021/08/08 10:46:37;;;;;;;;;;;;;;;;;;5037628;28;19964;-67
2021/08/08 10:49:04;;;;;;;;;;;;;;;;;;5047883;28;19928;-68
2021/08/08 10:51:31;;;;;;;;;;;;;;;;;;5041939;28;19925;-68
2021/08/08 10:53:58;;;;;;;;;;;;;;;;;;5045682;28;19932;-71
2021/08/08 10:56:24;;;;;;;;;;;;;;;;;;5042884;28;20296;-69
2021/08/08 10:58:51;;;;;;;;;;;;;;;;;;5039406;28;19940;-70
2021/08/08 11:01:18;;;;;;;;;;;;;;;;;;5040053;28;19937;-69
2021/08/08 11:03:45;;;;;;;;;;;;;;;;;;5043742;28;19951;-69
2021/08/08 11:06:12;;;;;;;;;;;;;;;;;;5042113;28;20319;-69
2021/08/08 11:08:39;;;;;;;;;;;;;;;;;;5040277;28;19929;-71
2021/08/08 11:11:06;;;;;;;;;;;;;;;;;;5044168;28;19968;-70
2021/08/08 11:13:33;;;;;;;;;;;;;;;;;;5043478;28;19933;-70
2021/08/08 11:16:00;;;;;;;;;;;;;;;;;;5043199;28;19925;-70
2021/08/08 11:18:27;;;;;;;;;;;;;;;;;;5035283;28;20324;-68
2021/08/08 11:20:54;;;;;;;;;;;;;;;;;;5043446;28;19932;-69
2021/08/08 11:23:21;;;;;;;;;;;;;;;;;;5042683;28;19928;-67
2021/08/08 11:25:48;;;;;;;;;;;;;;;;;;5044021;28;20400;-68
2021/08/08 11:28:15;;;;;;;;;;;;;;;;;;5041479;28;20016;-68
2021/08/08 11:30:42;;;;;;;;;;;;;;;;;;5038719;28;19929;-68
2021/08/08 11:33:09;;;;;;;;;;;;;;;;;;5041413;28;20399;-70
2021/08/08 11:35:35;;;;;;;;;;;;;;;;;;5039372;28;20376;-69
2021/08/08 11:38:02;;;;;;;;;;;;;;;;;;5043748;28;20388;-69
2021/08/08 11:40:29;;;;;;;;;;;;;;;;;;5043668;28;19928;-68
2021/08/08 11:42:57;;;;;;;;;;;;;;;;;;5039639;28;19936;-70
2021/08/08 11:45:24;;;;;;;;;;;;;;;;;;5040939;28;19928;-70
2021/08/08 11:47:51;;;;;;;;;;;;;;;;;;5043923;28;19931;-70
2021/08/08 11:50:18;;;;;;;;;;;;;;;;;;5039687;28;19943;-68
2021/08/08 11:52:45;;;;;;;;;;;;;;;;;;5045321;28;20289;-70
2021/08/08 11:55:14;;;;;;;;;;;;;;;;;;5046802;28;20264;-69
2021/08/08 11:57:40;;;;;;;;;;;;;;;;;;5044198;28;20365;-70
2021/08/08 12:00:07;;;;;;;;;;;;;;;;;;5042057;28;19925;-69
2021/08/08 12:02:34;;;;;;;;;;;;;;;;;;5043100;28;19925;-69
2021/08/08 12:05:01;;;;;;;;;;;;;;;;;;5042313;28;19968;-69
2021/08/08 12:07:29;;;;;;;;;;;;;;;;;;5046658;28;20297;-69
2021/08/08 12:09:56;;;;;;;;;;;;;;;;;;5043980;28;19925;-69
2021/08/08 12:12:23;;;;;;;;;;;;;;;;;;5043450;28;20444;-69
2021/08/08 12:14:50;;;;;;;;;;;;;;;;;;5042601;28;19929;-69
2021/08/08 12:17:17;;;;;;;;;;;;;;;;;;5045016;28;19936;-69
2021/08/08 12:19:44;;;;;;;;;;;;;;;;;;5042232;28;19925;-71
2021/08/08 12:22:11;;;;;;;;;;;;;;;;;;5046592;28;19948;-68
2021/08/08 12:24:38;;;;;;;;;;;;;;;;;;5045184;28;20851;-69
2021/08/08 12:27:05;;;;;;;;;;;;;;;;;;5042613;28;20019;-69
2021/08/08 12:29:32;;;;;;;;;;;;;;;;;;5045278;28;20039;-69
2021/08/08 12:31:59;;;;;;;;;;;;;;;;;;5043392;28;19929;-70
2021/08/08 12:34:26;;;;;;;;;;;;;;;;;;5044411;28;19935;-70
2021/08/08 12:36:53;;;;;;;;;;;;;;;;;;5043543;28;21610;-70
2021/08/08 12:39:20;;;;;;;;;;;;;;;;;;5046135;28;19932;-71
2021/08/08 12:41:47;;;;;;;;;;;;;;;;;;5044692;28;19936;-69
2021/08/08 12:44:14;;;;;;;;;;;;;;;;;;5042861;28;19924;-69
2021/08/08 12:46:40;;;;;;;;;;;;;;;;;;5044164;28;19933;-70
2021/08/08 12:49:09;;;;;;;;;;;;;;;;;;5048298;28;19929;-70
2021/08/08 12:51:36;;;;;;;;;;;;;;;;;;5043510;28;19932;-69
2021/08/08 12:54:03;;;;;;;;;;;;;;;;;;5045693;28;19925;-70
2021/08/08 12:56:30;;;;;;;;;;;;;;;;;;5042257;28;19925;-68
2021/08/08 12:58:57;;;;;;;;;;;;;;;;;;5048006;28;19932;-68
2021/08/08 13:01:23;;;;;;;;;;;;;;;;;;5046426;28;19929;-68
2021/08/08 13:03:51;;;;;;;;;;;;;;;;;;5047677;28;20019;-68
2021/08/08 13:06:18;;;;;;;;;;;;;;;;;;5044941;28;20014;-69
2021/08/08 13:08:45;;;;;;;;;;;;;;;;;;5041958;28;19933;-69
2021/08/08 13:11:11;;;;;;;;;;;;;;;;;;5045182;28;19925;-68
2021/08/08 13:13:38;;;;;;;;;;;;;;;;;;5046689;28;19935;-68
2021/08/08 13:16:05;;;;;;;;;;;;;;;;;;5044399;28;19978;-68
2021/08/08 13:18:32;;;;;;;;;;;;;;;;;;5048318;28;19925;-68
2021/08/08 13:21:01;;;;;;;;;;;;;;;;;;5044390;28;20023;-68
2021/08/08 13:23:28;;;;;;;;;;;;;;;;;;5047643;28;19968;-67
2021/08/08 13:25:55;;;;;;;;;;;;;;;;;;5044857;28;19994;-68
2021/08/08 13:28:22;;;;;;;;;;;;;;;;;;5043696;28;20639;-67
2021/08/08 13:30:49;;;;;;;;;;;;;;;;;;5048706;28;19932;-66
2021/08/08 13:33:16;;;;;;;;;;;;;;;;;;5042693;28;19925;-68
2021/08/08 13:35:43;;;;;;;;;;;;;;;;;;5049380;28;19925;-68
2021/08/08 13:38:10;;;;;;;;;;;;;;;;;;5050729;28;20008;-68
2021/08/08 13:40:37;;;;;;;;;;;;;;;;;;5043818;28;20004;-67
2021/08/08 13:43:04;;;;;;;;;;;;;;;;;;5049976;28;19925;-67
2021/08/08 13:45:31;;;;;;;;;;;;;;;;;;5046729;28;19931;-67
2021/08/08 13:47:57;;;;;;;;;;;;;;;;;;5042513;28;20301;-67
2021/08/08 13:50:24;;;;;;;;;;;;;;;;;;5048009;28;19925;-68
2021/08/08 13:52:53;;;;;;;;;;;;;;;;;;5047838;28;20285;-68
2021/08/08 13:55:20;;;;;;;;;;;;;;;;;;5046322;28;19932;-68
2021/08/08 13:57:47;;;;;;;;;;;;;;;;;;5046839;28;19982;-67
2021/08/08 14:00:14;;;;;;;;;;;;;;;;;;5047697;28;19933;-66
2021/08/08 14:02:41;;;;;;;;;;;;;;;;;;5044253;28;19932;-67
2021/08/08 14:05:08;;;;;;;;;;;;;;;;;;5045302;28;20304;-67
2021/08/08 14:07:35;;;;;;;;;;;;;;;;;;5046326;28;19931;-69
2021/08/08 14:10:02;;;;;;;;;;;;;;;;;;5044645;28;20500;-67
2021/08/08 14:12:29;;;;;;;;;;;;;;;;;;5047157;28;19925;-67
2021/08/08 14:14:56;;;;;;;;;;;;;;;;;;5042848;28;19925;-67
2021/08/08 14:17:23;;;;;;;;;;;;;;;;;;5043924;28;19925;-67
2021/08/08 14:19:50;;;;;;;;;;;;;;;;;;5039807;28;19925;-68
2021/08/08 14:22:16;;;;;;;;;;;;;;;;;;5047571;28;19925;-67
2021/08/08 14:24:43;;;;;;;;;;;;;;;;;;5047998;28;19931;-67
2021/08/08 14:27:10;;;;;;;;;;;;;;;;;;5048247;28;19925;-67
2021/08/08 14:29:37;;;;;;;;;;;;;;;;;;5050686;28;19939;-68
2021/08/08 14:32:04;;;;;;;;;;;;;;;;;;5038111;28;19932;-67
2021/08/08 14:34:31;;;;;;;;;;;;;;;;;;5048690;28;20023;-67
2021/08/08 14:36:58;;;;;;;;;;;;;;;;;;5043983;28;19929;-68
2021/08/08 14:39:26;;;;;;;;;;;;;;;;;;5049159;28;20357;-67
2021/08/08 14:41:53;;;;;;;;;;;;;;;;;;5044934;28;19932;-68
2021/08/08 14:44:20;;;;;;;;;;;;;;;;;;5048023;28;19932;-68
2021/08/08 14:46:47;;;;;;;;;;;;;;;;;;5045316;28;19925;-67
2021/08/08 14:49:13;;;;;;;;;;;;;;;;;;5040931;28;19932;-68
2021/08/08 14:51:40;;;;;;;;;;;;;;;;;;5047909;28;20289;-68
2021/08/08 14:54:07;;;;;;;;;;;;;;;;;;5049828;28;19929;-68
2021/08/08 14:56:34;;;;;;;;;;;;;;;;;;5041584;28;19924;-68
2021/08/08 14:59:01;;;;;;;;;;;;;;;;;;5044401;28;19925;-69
2021/08/08 15:01:28;;;;;;;;;;;;;;;;;;5049985;28;19951;-69
2021/08/08 15:03:55;;;;;;;;;;;;;;;;;;5049051;28;19929;-68
2021/08/08 15:06:22;;;;;;;;;;;;;;;;;;5047034;28;19991;-69
2021/08/08 15:08:49;;;;;;;;;;;;;;;;;;5042771;28;19925;-68
2021/08/08 15:11:16;;;;;;;;;;;;;;;;;;5045715;28;19924;-68
2021/08/08 15:13:43;;;;;;;;;;;;;;;;;;5048330;28;19925;-67
2021/08/08 15:16:10;;;;;;;;;;;;;;;;;;5043962;28;20001;-67
2021/08/08 15:18:37;;;;;;;;;;;;;;;;;;5043545;28;19925;-68
2021/08/08 15:21:04;;;;;;;;;;;;;;;;;;5046833;28;19935;-67
2021/08/08 15:23:31;;;;;;;;;;;;;;;;;;5043936;28;19976;-69
2021/08/08 15:25:57;;;;;;;;;;;;;;;;;;5048934;28;20027;-67
2021/08/08 15:28:24;;;;;;;;;;;;;;;;;;5047221;28;20385;-68
2021/08/08 15:30:51;;;;;;;;;;;;;;;;;;5044517;28;19925;-68
2021/08/08 15:33:18;;;;;;;;;;;;;;;;;;5052146;28;19939;-68
2021/08/08 15:35:45;;;;;;;;;;;;;;;;;;5053266;28;19931;-68
2021/08/08 15:38:12;;;;;;;;;;;;;;;;;;5047197;28;20325;-68
2021/08/08 15:40:39;;;;;;;;;;;;;;;;;;5058132;22;19928;-67
2021/08/08 15:43:06;;;;;;;;;;;;;;;;;;5032330;28;19936;-67
2021/08/08 15:45:33;;;;;;;;;;;;;;;;;;5037137;28;19925;-67
2021/08/08 15:48:00;;;;;;;;;;;;;;;;;;5049345;28;19932;-68
2021/08/08 15:50:27;;;;;;;;;;;;;;;;;;5046632;28;19979;-67
2021/08/08 15:52:54;;;;;;;;;;;;;;;;;;5018207;28;19929;-67
2021/08/08 15:55:21;;;;;;;;;;;;;;;;;;5013201;28;19925;-67
2021/08/08 15:57:48;;;;;;;;;;;;;;;;;;5012923;28;19929;-67
2021/08/08 16:00:15;;;;;;;;;;;;;;;;;;5011991;28;20377;-66
2021/08/08 16:02:42;;;;;;;;;;;;;;;;;;5011378;28;20301;-67
2021/08/08 16:05:09;;;;;;;;;;;;;;;;;;5015564;28;20386;-67
2021/08/08 16:07:36;;;;;;;;;;;;;;;;;;5019900;28;20278;-68
2021/08/08 16:10:03;;;;;;;;;;;;;;;;;;5018657;28;20385;-67
2021/08/08 16:12:30;;;;;;;;;;;;;;;;;;5011137;28;19929;-68
2021/08/08 16:14:57;;;;;;;;;;;;;;;;;;5010223;28;20401;-67
2021/08/08 16:17:24;;;;;;;;;;;;;;;;;;5020549;28;19932;-67
2021/08/08 16:19:51;;;;;;;;;;;;;;;;;;5017325;28;19925;-67
2021/08/08 16:22:18;;;;;;;;;;;;;;;;;;5011063;28;19945;-67
2021/08/08 16:24:45;;;;;;;;;;;;;;;;;;5007709;28;20390;-66
2021/08/08 16:27:11;;;;;;;;;;;;;;;;;;5020302;28;19937;-67
2021/08/08 16:29:38;;;;;;;;;;;;;;;;;;5019613;28;20456;-67
2021/08/08 16:32:05;;;;;;;;;;;;;;;;;;5012648;28;20397;-67
2021/08/08 16:34:32;;;;;;;;;;;;;;;;;;5014035;28;20202;-66
2021/08/08 16:36:59;;;;;;;;;;;;;;;;;;5018613;28;19925;-67
2021/08/08 16:39:26;;;;;;;;;;;;;;;;;;5015015;28;20013;-68
2021/08/08 16:41:53;;;;;;;;;;;;;;;;;;5017406;28;19926;-68
2021/08/08 16:44:20;;;;;;;;;;;;;;;;;;5016728;28;19941;-66